createdAt,value
2018-09-12T00:01:12.815Z,20.70
2018-09-12T00:03:41.665Z,20.60
2018-09-12T00:06:10.079Z,20.50
2018-09-12T00:08:38.839Z,20.40
2018-09-12T00:11:08.599Z,20.40
2018-09-12T00:13:37.374Z,20.30
2018-09-12T00:16:05.485Z,20.30
2018-09-12T00:18:34.287Z,20.30
2018-09-12T00:21:03.095Z,20.20
2018-09-12T00:23:32.342Z,20.10
2018-09-12T00:26:01.110Z,20.10
2018-09-12T00:28:30.113Z,20.10
2018-09-12T00:30:58.583Z,20.00
2018-09-12T00:33:27.333Z,20.00
2018-09-12T00:35:55.757Z,19.90
2018-09-12T00:38:24.536Z,19.90
2018-09-12T00:40:53.364Z,19.90
2018-09-12T00:43:21.863Z,19.90
2018-09-12T00:45:50.652Z,19.90
2018-09-12T00:48:19.191Z,19.90
2018-09-12T00:50:47.654Z,19.80
2018-09-12T00:53:16.398Z,19.70
2018-09-12T00:55:44.912Z,19.60
2018-09-12T00:58:13.677Z,19.60
2018-09-12T01:00:42.488Z,19.60
2018-09-12T01:03:10.978Z,19.60
2018-09-12T01:05:42.628Z,19.50
2018-09-12T01:08:12.739Z,19.50
2018-09-12T01:10:41.536Z,19.50
2018-09-12T01:13:10.278Z,19.50
2018-09-12T01:15:39.045Z,19.50
2018-09-12T01:18:07.173Z,19.40
2018-09-12T01:20:35.573Z,19.40
2018-09-12T01:23:04.004Z,19.40
2018-09-12T01:25:32.442Z,19.30
2018-09-12T01:28:00.578Z,19.30
2018-09-12T01:30:29.035Z,19.30
2018-09-12T01:32:57.894Z,19.30
2018-09-12T01:35:26.218Z,19.20
2018-09-12T01:37:54.990Z,19.20
2018-09-12T01:40:23.476Z,19.20
2018-09-12T01:42:52.778Z,19.10
2018-09-12T01:45:22.020Z,19.10
2018-09-12T01:47:51.139Z,19.10
2018-09-12T01:50:19.875Z,19.00
2018-09-12T01:52:48.454Z,19.10
2018-09-12T01:55:16.910Z,19.10
2018-09-12T01:57:45.725Z,19.10
2018-09-12T02:00:18.156Z,19.10
2018-09-12T02:02:47.587Z,19.00
2018-09-12T02:05:16.037Z,19.00
2018-09-12T02:07:44.837Z,19.00
2018-09-12T02:10:13.474Z,19.00
2018-09-12T02:12:42.206Z,18.90
2018-09-12T02:15:10.735Z,18.90
2018-09-12T02:17:39.478Z,18.90
2018-09-12T02:20:07.688Z,18.90
2018-09-12T02:22:36.451Z,18.80
2018-09-12T02:25:04.574Z,18.70
2018-09-12T02:27:33.388Z,18.70
2018-09-12T02:30:01.582Z,18.70
2018-09-12T02:32:30.513Z,18.70
2018-09-12T02:34:58.922Z,18.60
2018-09-12T02:37:27.322Z,18.60
2018-09-12T02:39:56.349Z,18.60
2018-09-12T02:42:25.263Z,18.50
2018-09-12T02:44:53.734Z,18.50
2018-09-12T02:47:28.015Z,18.50
2018-09-12T02:49:56.614Z,18.50
2018-09-12T02:52:25.336Z,18.40
2018-09-12T02:54:53.787Z,18.50
2018-09-12T02:57:22.593Z,18.50
2018-09-12T02:59:51.083Z,18.50
2018-09-12T03:02:19.415Z,18.50
2018-09-12T03:04:47.870Z,18.50
2018-09-12T03:07:16.763Z,18.40
2018-09-12T03:09:45.361Z,18.40
2018-09-12T03:12:14.086Z,18.40
2018-09-12T03:14:42.721Z,18.30
2018-09-12T03:17:11.998Z,18.30
2018-09-12T03:19:40.870Z,18.20
2018-09-12T03:22:09.657Z,18.20
2018-09-12T03:24:38.135Z,18.20
2018-09-12T03:27:06.857Z,18.30
2018-09-12T03:29:35.650Z,18.30
2018-09-12T03:32:04.160Z,18.30
2018-09-12T03:34:32.668Z,18.30
2018-09-12T03:37:01.442Z,18.30
2018-09-12T03:39:30.404Z,18.30
2018-09-12T03:41:58.465Z,18.30
2018-09-12T03:44:26.921Z,18.20
2018-09-12T03:46:55.315Z,18.20
2018-09-12T03:49:23.740Z,18.20
2018-09-12T03:51:52.494Z,18.20
2018-09-12T03:54:21.249Z,18.20
2018-09-12T03:56:50.033Z,18.20
2018-09-12T03:59:18.808Z,18.20
2018-09-12T04:01:46.923Z,18.10
2018-09-12T04:04:15.747Z,18.10
2018-09-12T04:06:44.547Z,18.10
2018-09-12T04:09:13.390Z,18.10
2018-09-12T04:11:42.171Z,18.10
2018-09-12T04:14:10.983Z,18.00
2018-09-12T04:19:20.017Z,17.90
2018-09-12T04:21:48.797Z,17.90
2018-09-12T04:24:17.653Z,17.90
2018-09-12T04:26:46.627Z,17.90
2018-09-12T04:29:14.750Z,17.90
2018-09-12T04:31:43.623Z,17.90
2018-09-12T04:34:12.382Z,17.90
2018-09-12T04:36:40.802Z,17.80
2018-09-12T04:39:10.216Z,17.80
2018-09-12T04:41:38.446Z,17.80
2018-09-12T04:44:06.935Z,17.90
2018-09-12T04:46:35.821Z,17.90
2018-09-12T04:49:04.688Z,17.80
2018-09-12T04:51:33.199Z,17.80
2018-09-12T04:54:02.027Z,17.90
2018-09-12T04:56:30.455Z,17.90
2018-09-12T04:58:58.660Z,17.90
2018-09-12T05:01:27.425Z,17.90
2018-09-12T05:03:55.968Z,18.00
2018-09-12T05:06:24.694Z,18.00
2018-09-12T05:08:53.885Z,18.00
2018-09-12T05:11:23.043Z,18.10
2018-09-12T05:13:51.753Z,18.20
2018-09-12T05:16:20.530Z,18.20
2018-09-12T05:18:48.931Z,18.30
2018-09-12T05:21:17.675Z,18.40
2018-09-12T05:23:46.115Z,18.50
2018-09-12T05:26:14.552Z,18.60
2018-09-12T05:28:42.958Z,18.50
2018-09-12T05:31:11.415Z,18.60
2018-09-12T05:33:40.299Z,18.80
2018-09-12T05:36:09.176Z,18.90
2018-09-12T05:38:38.062Z,19.10
2018-09-12T05:41:06.864Z,19.20
2018-09-12T05:43:35.573Z,19.40
2018-09-12T05:46:04.021Z,19.70
2018-09-12T05:48:32.489Z,19.90
2018-09-12T05:51:01.248Z,20.20
2018-09-12T05:53:30.088Z,20.50
2018-09-12T05:55:59.266Z,20.70
2018-09-12T05:58:28.026Z,20.90
2018-09-12T06:00:56.815Z,21.10
2018-09-12T06:03:25.477Z,21.30
2018-09-12T06:05:54.250Z,21.60
2018-09-12T06:08:23.153Z,21.70
2018-09-12T06:10:51.792Z,21.90
2018-09-12T06:13:20.542Z,22.10
2018-09-12T06:15:48.901Z,22.30
2018-09-12T06:18:17.658Z,22.70
2018-09-12T06:20:46.131Z,22.70
2018-09-12T06:23:15.220Z,22.80
2018-09-12T06:25:43.962Z,22.90
2018-09-12T06:28:12.833Z,23.00
2018-09-12T06:30:41.585Z,23.10
2018-09-12T06:33:10.145Z,23.20
2018-09-12T06:35:38.549Z,23.30
2018-09-12T06:38:06.613Z,23.40
2018-09-12T06:40:35.377Z,23.60
2018-09-12T06:43:03.761Z,23.60
2018-09-12T06:45:32.506Z,23.80
2018-09-12T06:48:01.078Z,23.90
2018-09-12T06:50:29.826Z,23.90
2018-09-12T06:52:58.648Z,24.20
2018-09-12T06:55:27.237Z,24.40
2018-09-12T06:57:55.705Z,24.80
2018-09-12T07:00:23.945Z,24.90
2018-09-12T07:02:53.024Z,25.00
2018-09-12T07:05:21.426Z,25.30
2018-09-12T07:07:49.809Z,25.90
2018-09-12T07:10:18.731Z,25.80
2018-09-12T07:12:47.305Z,26.10
2018-09-12T07:15:15.743Z,26.40
2018-09-12T07:17:44.431Z,26.20
2018-09-12T07:20:12.561Z,26.20
2018-09-12T07:22:41.290Z,26.00
2018-09-12T07:25:10.269Z,25.90
2018-09-12T07:27:39.172Z,25.90
2018-09-12T07:30:07.744Z,26.20
2018-09-12T07:32:36.880Z,26.10
2018-09-12T07:35:04.987Z,26.30
2018-09-12T07:37:33.704Z,26.50
2018-09-12T07:40:02.541Z,26.80
2018-09-12T07:42:31.735Z,27.10
2018-09-12T07:45:00.131Z,27.10
2018-09-12T07:47:28.947Z,27.20
2018-09-12T07:49:57.851Z,27.20
2018-09-12T07:52:26.577Z,27.70
2018-09-12T07:54:55.687Z,27.70
2018-09-12T07:57:24.578Z,28.00
2018-09-12T07:59:53.080Z,27.80
2018-09-12T08:02:22.045Z,27.80
2018-09-12T08:04:50.532Z,27.40
2018-09-12T08:07:18.975Z,27.60
2018-09-12T08:09:47.799Z,28.10
2018-09-12T08:12:16.569Z,28.40
2018-09-12T08:14:45.643Z,28.30
2018-09-12T08:17:14.106Z,28.70
2018-09-12T08:19:42.870Z,28.90
2018-09-12T08:22:11.416Z,28.20
2018-09-12T08:24:39.940Z,27.60
2018-09-12T08:27:08.624Z,27.20
2018-09-12T08:29:37.373Z,27.20
2018-09-12T08:32:05.879Z,26.90
2018-09-12T08:34:34.993Z,26.80
2018-09-12T08:37:05.397Z,27.00
2018-09-12T08:39:35.903Z,27.10
2018-09-12T08:42:04.229Z,27.40
2018-09-12T08:44:32.915Z,27.30
2018-09-12T08:47:01.385Z,27.10
2018-09-12T08:49:29.478Z,26.90
2018-09-12T08:51:58.762Z,26.70
2018-09-12T08:54:27.254Z,26.60
2018-09-12T08:56:56.011Z,26.50
2018-09-12T08:59:24.471Z,26.40
2018-09-12T09:01:54.768Z,26.30
2018-09-12T09:04:23.251Z,26.40
2018-09-12T09:06:52.344Z,26.40
2018-09-12T09:09:21.413Z,26.60
2018-09-12T09:11:50.998Z,26.90
2018-09-12T09:14:20.017Z,27.00
2018-09-12T09:16:48.822Z,26.90
2018-09-12T09:19:17.287Z,26.50
2018-09-12T09:21:46.410Z,27.00
2018-09-12T09:24:14.789Z,27.90
2018-09-12T09:26:44.142Z,28.40
2018-09-12T09:29:13.039Z,28.30
2018-09-12T09:31:42.027Z,28.00
2018-09-12T09:34:10.771Z,27.70
2018-09-12T09:36:40.172Z,27.00
2018-09-12T09:39:10.517Z,26.70
2018-09-12T09:41:39.591Z,26.50
2018-09-12T09:44:08.512Z,26.50
2018-09-12T09:46:38.253Z,26.50
2018-09-12T09:49:07.438Z,26.30
2018-09-12T09:51:36.033Z,26.20
2018-09-12T09:54:04.155Z,26.10
2018-09-12T09:56:33.019Z,26.10
2018-09-12T09:59:01.647Z,26.30
2018-09-12T10:01:35.778Z,26.30
2018-09-12T10:04:09.583Z,26.30
2018-09-12T10:06:43.630Z,26.90
2018-09-12T10:09:18.011Z,27.00
2018-09-12T10:11:46.908Z,27.10
2018-09-12T10:14:15.607Z,27.10
2018-09-12T10:16:44.693Z,27.80
2018-09-12T10:19:13.576Z,28.20
2018-09-12T10:21:41.983Z,28.10
2018-09-12T10:24:11.108Z,27.70
2018-09-12T10:26:40.060Z,27.90
2018-09-12T10:29:10.123Z,27.80
2018-09-12T10:31:39.299Z,27.30
2018-09-12T10:34:08.009Z,27.20
2018-09-12T10:36:36.433Z,27.70
2018-09-12T10:39:07.745Z,28.90
2018-09-12T10:41:36.753Z,29.70
2018-09-12T10:44:05.829Z,29.10
2018-09-12T10:46:35.170Z,29.40
2018-09-12T10:49:03.651Z,30.00
2018-09-12T10:51:32.279Z,30.30
2018-09-12T10:54:02.160Z,30.00
2018-09-12T10:56:31.207Z,29.30
2018-09-12T10:58:59.595Z,29.20
2018-09-12T11:01:28.897Z,29.80
2018-09-12T11:03:58.083Z,30.30
2018-09-12T11:06:26.683Z,29.60
2018-09-12T11:08:56.253Z,28.90
2018-09-12T11:11:25.656Z,28.80
2018-09-12T11:13:54.716Z,29.00
2018-09-12T11:16:23.201Z,29.30
2018-09-12T11:18:53.016Z,30.00
2018-09-12T11:21:21.999Z,30.00
2018-09-12T11:23:51.522Z,29.80
2018-09-12T11:26:20.173Z,29.50
2018-09-12T11:28:48.928Z,29.60
2018-09-12T11:31:17.510Z,29.30
2018-09-12T11:33:46.419Z,30.50
2018-09-12T11:36:15.265Z,31.00
2018-09-12T11:38:43.869Z,31.60
2018-09-12T11:41:12.655Z,32.10
2018-09-12T11:43:41.091Z,31.60
2018-09-12T11:46:09.639Z,31.00
2018-09-12T11:48:38.393Z,32.10
2018-09-12T11:51:06.500Z,33.00
2018-09-12T11:53:35.368Z,34.00
2018-09-12T11:56:04.241Z,34.30
2018-09-12T11:58:33.066Z,32.90
2018-09-12T12:01:02.127Z,33.00
2018-09-12T12:03:30.899Z,32.30
2018-09-12T12:05:59.553Z,30.70
2018-09-12T12:08:28.072Z,30.30
2018-09-12T12:10:56.523Z,31.40
2018-09-12T12:13:25.039Z,32.90
2018-09-12T12:15:53.805Z,33.20
2018-09-12T12:18:22.581Z,32.90
2018-09-12T12:20:51.043Z,33.30
2018-09-12T12:23:19.471Z,34.20
2018-09-12T12:25:48.127Z,33.70
2018-09-12T12:28:16.685Z,33.50
2018-09-12T12:30:47.587Z,33.60
2018-09-12T12:33:16.420Z,33.40
2018-09-12T12:35:45.340Z,33.30
2018-09-12T12:38:15.330Z,34.30
2018-09-12T12:40:44.426Z,33.80
2018-09-12T12:43:13.670Z,34.40
2018-09-12T12:45:42.836Z,34.00
2018-09-12T12:48:11.917Z,32.30
2018-09-12T12:50:41.187Z,31.80
2018-09-12T12:53:10.147Z,31.90
2018-09-12T12:55:39.006Z,32.70
2018-09-12T12:58:07.933Z,33.50
2018-09-12T13:00:36.765Z,34.50
2018-09-12T13:03:05.035Z,34.70
2018-09-12T13:05:33.762Z,35.30
2018-09-12T13:08:01.914Z,34.00
2018-09-12T13:10:30.912Z,33.50
2018-09-12T13:13:00.273Z,34.10
2018-09-12T13:15:29.012Z,34.60
2018-09-12T13:17:57.745Z,35.80
2018-09-12T13:20:26.580Z,36.10
2018-09-12T13:22:55.009Z,35.70
2018-09-12T13:25:24.192Z,34.30
2018-09-12T13:27:53.095Z,33.90
2018-09-12T13:30:22.307Z,33.80
2018-09-12T13:32:51.501Z,33.70
2018-09-12T13:35:20.949Z,34.70
2018-09-12T13:37:49.492Z,35.60
2018-09-12T13:40:17.917Z,34.90
2018-09-12T13:42:47.077Z,34.20
2018-09-12T13:45:15.838Z,32.80
2018-09-12T13:47:44.751Z,32.30
2018-09-12T13:50:16.310Z,32.40
2018-09-12T13:52:45.877Z,32.80
2018-09-12T13:55:14.878Z,33.30
2018-09-12T13:57:44.344Z,34.10
2018-09-12T14:00:12.500Z,35.10
2018-09-12T14:02:40.694Z,35.60
2018-09-12T14:05:09.291Z,36.00
2018-09-12T14:07:38.408Z,36.00
2018-09-12T14:10:06.804Z,35.50
2018-09-12T14:12:36.094Z,35.10
2018-09-12T14:15:04.450Z,35.60
2018-09-12T14:17:33.370Z,35.90
2018-09-12T14:20:02.226Z,36.00
2018-09-12T14:22:31.622Z,36.00
2018-09-12T14:25:00.906Z,36.00
2018-09-12T14:27:30.629Z,35.90
2018-09-12T14:29:59.490Z,36.00
2018-09-12T14:32:28.626Z,35.90
2018-09-12T14:34:57.303Z,36.00
2018-09-12T14:37:26.064Z,36.30
2018-09-12T14:39:55.106Z,35.80
2018-09-12T14:42:24.106Z,35.50
2018-09-12T14:44:52.848Z,35.20
2018-09-12T14:47:22.023Z,34.90
2018-09-12T14:49:50.711Z,34.60
2018-09-12T14:52:19.127Z,33.80
2018-09-12T14:54:48.398Z,33.20
2018-09-12T14:57:17.455Z,33.00
2018-09-12T14:59:46.449Z,32.90
2018-09-12T15:02:15.771Z,32.00
2018-09-12T15:04:44.552Z,31.40
2018-09-12T15:07:13.651Z,30.90
2018-09-12T15:09:43.956Z,30.50
2018-09-12T15:12:13.279Z,30.00
2018-09-12T15:14:41.979Z,29.80
2018-09-12T15:17:10.658Z,29.40
2018-09-12T15:19:39.827Z,29.00
2018-09-12T15:22:08.845Z,28.90
2018-09-12T15:24:37.638Z,28.60
2018-09-12T15:27:06.439Z,28.40
2018-09-12T15:29:35.294Z,28.10
2018-09-12T15:32:03.832Z,27.60
2018-09-12T15:34:32.251Z,27.50
2018-09-12T15:37:01.050Z,27.20
2018-09-12T15:39:30.181Z,27.10
2018-09-12T15:41:58.995Z,26.90
2018-09-12T15:44:27.441Z,27.00
2018-09-12T15:46:56.305Z,27.20
2018-09-12T15:49:24.993Z,27.00
2018-09-12T15:51:53.812Z,26.90
2018-09-12T15:54:22.901Z,26.70
2018-09-12T15:56:51.694Z,26.40
2018-09-12T15:59:20.143Z,26.20
2018-09-12T16:01:49.085Z,25.90
2018-09-12T16:04:17.929Z,25.70
2018-09-12T16:06:46.743Z,25.60
2018-09-12T16:09:15.573Z,25.50
2018-09-12T16:11:44.278Z,25.60
2018-09-12T16:14:13.019Z,25.60
2018-09-12T16:16:42.155Z,25.60
2018-09-12T16:19:10.779Z,25.40
2018-09-12T16:21:39.181Z,25.30
2018-09-12T16:24:08.333Z,24.90
2018-09-12T16:26:37.017Z,24.50
2018-09-12T16:29:05.362Z,24.50
2018-09-12T16:31:34.070Z,24.30
2018-09-12T16:34:02.503Z,24.20
2018-09-12T16:36:31.423Z,24.00
2018-09-12T16:39:00.188Z,24.00
2018-09-12T16:41:28.946Z,23.90
2018-09-12T16:43:57.976Z,23.70
2018-09-12T16:46:26.717Z,23.60
2018-09-12T16:48:55.223Z,23.50
2018-09-12T16:51:24.605Z,23.50
2018-09-12T16:53:53.683Z,23.30
2018-09-12T16:56:22.514Z,23.20
2018-09-12T16:58:52.022Z,23.20
2018-09-12T17:01:20.465Z,23.10
2018-09-12T17:03:48.838Z,22.90
2018-09-12T17:06:17.430Z,22.70
2018-09-12T17:08:46.360Z,22.60
2018-09-12T17:11:15.329Z,22.40
2018-09-12T17:13:44.446Z,22.20
2018-09-12T17:16:13.100Z,22.00
2018-09-12T17:18:41.481Z,21.90
2018-09-12T17:21:10.638Z,21.80
2018-09-12T17:23:39.025Z,21.70
2018-09-12T17:26:07.475Z,21.60
2018-09-12T17:28:36.564Z,21.60
2018-09-12T17:31:04.628Z,21.40
2018-09-12T17:33:33.344Z,21.20
2018-09-12T17:36:01.868Z,21.10
2018-09-12T17:38:30.659Z,21.00
2018-09-12T17:40:59.827Z,21.10
2018-09-12T17:43:28.893Z,20.90
2018-09-12T17:45:57.363Z,20.80
2018-09-12T17:48:26.257Z,20.70
2018-09-12T17:50:54.412Z,20.70
2018-09-12T17:53:23.460Z,20.60
2018-09-12T17:55:52.175Z,20.70
2018-09-12T17:58:21.210Z,20.70
2018-09-12T18:00:50.064Z,20.80
2018-09-12T18:03:19.635Z,20.60
2018-09-12T18:05:48.915Z,20.50
2018-09-12T18:08:17.474Z,20.50
2018-09-12T18:10:46.026Z,20.60
2018-09-12T18:13:14.948Z,20.70
2018-09-12T18:15:43.433Z,20.70
2018-09-12T18:18:11.763Z,20.40
2018-09-12T18:20:40.592Z,20.40
2018-09-12T18:23:09.435Z,20.30
2018-09-12T18:25:37.953Z,20.10
2018-09-12T18:28:06.855Z,20.00
2018-09-12T18:30:35.070Z,19.90
2018-09-12T18:33:04.080Z,19.90
2018-09-12T18:35:32.506Z,19.90
2018-09-12T18:38:00.943Z,19.90
2018-09-12T18:40:30.295Z,19.90
2018-09-12T18:42:59.101Z,20.00
2018-09-12T18:45:28.030Z,20.00
2018-09-12T18:47:57.227Z,20.00
2018-09-12T18:50:26.042Z,20.00
2018-09-12T18:52:55.004Z,19.90
2018-09-12T18:55:23.968Z,19.80
2018-09-12T18:57:52.726Z,19.80
2018-09-12T19:00:21.990Z,19.70
2018-09-12T19:02:50.993Z,19.60
2018-09-12T19:05:19.859Z,19.50
2018-09-12T19:07:48.944Z,19.60
2018-09-12T19:10:17.814Z,19.60
2018-09-12T19:12:46.877Z,19.60
2018-09-12T19:15:16.071Z,19.60
2018-09-12T19:17:45.039Z,19.30
2018-09-12T19:20:13.489Z,19.20
2018-09-12T19:22:42.519Z,19.10
2018-09-12T19:25:11.038Z,19.00
2018-09-12T19:27:39.885Z,18.90
2018-09-12T19:30:08.476Z,18.80
2018-09-12T19:32:37.314Z,18.80
2018-09-12T19:35:06.002Z,18.70
2018-09-12T19:37:35.110Z,18.60
2018-09-12T19:40:03.235Z,18.70
2018-09-12T19:42:32.686Z,18.80
2018-09-12T19:45:02.078Z,18.80
2018-09-12T19:47:30.988Z,18.90
2018-09-12T19:49:59.603Z,18.80
2018-09-12T19:52:28.513Z,18.90
2018-09-12T19:54:57.893Z,19.00
2018-09-12T19:57:26.653Z,18.90
2018-09-12T19:59:55.698Z,18.90
2018-09-12T20:02:28.906Z,18.90
2018-09-12T20:04:58.757Z,18.70
2018-09-12T20:07:27.748Z,18.70
2018-09-12T20:09:56.766Z,18.60
2018-09-12T20:12:25.794Z,18.60
2018-09-12T20:14:55.064Z,18.70
2018-09-12T20:17:24.191Z,18.60
2018-09-12T20:19:52.656Z,18.50
2018-09-12T20:22:21.468Z,18.60
2018-09-12T20:24:49.604Z,18.70
2018-09-12T20:27:18.755Z,18.70
2018-09-12T20:29:47.498Z,18.70
2018-09-12T20:32:16.534Z,18.60
2018-09-12T20:34:45.747Z,18.60
2018-09-12T20:37:14.519Z,18.40
2018-09-12T20:39:42.717Z,18.20
2018-09-12T20:42:11.164Z,18.00
2018-09-12T20:44:40.374Z,18.00
2018-09-12T20:47:09.156Z,18.00
2018-09-12T20:49:38.182Z,17.90
2018-09-12T20:52:06.227Z,17.80
2018-09-12T20:54:35.013Z,17.80
2018-09-12T20:57:03.530Z,17.90
2018-09-12T20:59:32.303Z,17.80
2018-09-12T21:02:01.035Z,17.80
2018-09-12T21:04:29.429Z,17.70
2018-09-12T21:06:58.134Z,17.80
2018-09-12T21:09:27.061Z,17.80
2018-09-12T21:11:55.845Z,17.90
2018-09-12T21:14:24.717Z,17.80
2018-09-12T21:16:53.283Z,17.80
2018-09-12T21:19:22.019Z,17.70
2018-09-12T21:21:50.440Z,17.70
2018-09-12T21:24:19.764Z,17.60
2018-09-12T21:26:48.549Z,17.60
2018-09-12T21:29:17.294Z,17.70
2018-09-12T21:31:46.202Z,17.80
2018-09-12T21:34:14.941Z,17.90
2018-09-12T21:36:43.687Z,17.90
2018-09-12T21:39:12.059Z,17.90
2018-09-12T21:41:40.882Z,17.90
2018-09-12T21:44:08.978Z,17.90
2018-09-12T21:46:37.781Z,17.90
2018-09-12T21:49:06.557Z,17.80
2018-09-12T21:51:35.458Z,17.70
2018-09-12T21:54:03.874Z,17.80
2018-09-12T21:56:32.654Z,17.70
2018-09-12T21:59:01.864Z,17.70
2018-09-12T22:01:29.893Z,17.60
2018-09-12T22:03:58.866Z,17.50
2018-09-12T22:06:27.740Z,17.50
2018-09-12T22:08:56.150Z,17.50
2018-09-12T22:11:24.812Z,17.40
2018-09-12T22:13:53.629Z,17.60
2018-09-12T22:16:22.543Z,17.60
2018-09-12T22:18:51.074Z,17.60
2018-09-12T22:21:19.966Z,17.60
2018-09-12T22:23:48.920Z,17.60
2018-09-12T22:26:17.708Z,17.60
2018-09-12T22:28:46.152Z,17.60
2018-09-12T22:31:14.550Z,17.70
2018-09-12T22:33:43.323Z,17.60
2018-09-12T22:36:11.741Z,17.70
2018-09-12T22:38:40.486Z,17.60
2018-09-12T22:41:09.307Z,17.60
2018-09-12T22:43:37.743Z,17.60
2018-09-12T22:46:06.582Z,17.70
2018-09-12T22:48:35.083Z,17.60
2018-09-12T22:51:04.236Z,17.70
2018-09-12T22:53:32.353Z,17.70
2018-09-12T22:56:01.778Z,17.70
2018-09-12T22:58:30.834Z,17.80
2018-09-12T23:00:59.705Z,17.70
2018-09-12T23:03:28.115Z,17.80
2018-09-12T23:05:57.246Z,17.70
2018-09-12T23:08:25.993Z,17.70
2018-09-12T23:10:54.447Z,17.60
2018-09-12T23:13:23.225Z,17.70
2018-09-12T23:15:52.082Z,17.70
2018-09-12T23:18:21.068Z,17.70
2018-09-12T23:20:50.663Z,17.70
2018-09-12T23:23:19.449Z,17.70
2018-09-12T23:25:48.222Z,17.60
2018-09-12T23:28:16.915Z,17.60
2018-09-12T23:30:45.662Z,17.60
2018-09-12T23:33:14.233Z,17.60
2018-09-12T23:35:43.455Z,17.70
2018-09-12T23:38:12.170Z,17.60
2018-09-12T23:40:40.879Z,17.60
2018-09-12T23:43:09.904Z,17.60
2018-09-12T23:45:38.330Z,17.70
2018-09-12T23:48:06.918Z,17.60
2018-09-12T23:50:35.917Z,17.60
2018-09-12T23:53:04.451Z,17.60
2018-09-12T23:55:32.961Z,17.60
2018-09-12T23:58:01.959Z,17.50
